Main page
METAR-TAF:

METAR-TAF

Airports :

Valley, Wales

RAF Valley

latitude: 53-15N, longitude: 004-32W, elevation: 1 m

Current weather observation

The report was made 34 minutes ago, at 22:50 UTC
Wind 22 kt from the South
Temperature 16°C
Humidity 88%
Pressure 1005 hPa
Visibility: 9000 m
haze

METAR: EGOV 172250Z AUTO 19022KT 9000 HZ BKN012/// BKN080/// 16/14 Q1005

Time: 00:24 (23:24 UTC)

Forecast

The report was made 9 hours and 34 minutes ago, at 13:50 UTC
Forecast valid from 17 at 15 UTC to 17 at 18 UTC
Wind 22 kt from the South with gusts up to 32 kt
Visibility 10 km or more
Few clouds at a height of 1200 ft

TAF: EGOV 171350Z 1715/1718 19022G32KT 9999 FEW012

Weather observations and forecasts of more than 4000 airports (METAR and TAF reports).

The available stations are represented by yellow and red dots on the map.

Hover mouse over dot to see the name of the station.

Then click to see weather observations and forecasts.

To change the map : click on the green buttons with a black cross to zoom in, on the green button with a dash to zoom out, or on the green arrows for adjacent maps.


METAR-TAF: